GLO2034 SBGL-SBGO
Flight info
| Callsign | GLO2034 |
|---|---|
| Flight time | 1h 37m |
| Altitude | 38000 |
| Route | UTMI1A EDNAM UM409 MIMIP UZ8 DEXED DCT SIRUL SIRU1A |
| Aircraft | B738/M-SDFGIKLORWXY/LB1 |
Departure
| Time | 2026-05-05 12:32 |
|---|---|
| Airport | Rio Galeão – Tom Jobim International Airport (SBGL) |
Arrival
| Time | 2026-05-05 14:09 |
|---|---|
| Airport | Santa Genoveva International Airport (SBGO) |
| Time | Latitude | Longitude | Altitude | Speed | Heading |
|---|---|---|---|---|---|
| 2026-05-05 12:20 | -22.81589 | -43.24688 | 21 ft | 0 kts | 25° |
| 2026-05-05 12:23 | -22.81593 | -43.24690 | 21 ft | 4 kts | 24° |
| 2026-05-05 12:23 | -22.81619 | -43.24701 | 21 ft | 4 kts | 11° |
| 2026-05-05 12:23 | -22.81643 | -43.24701 | 21 ft | 4 kts | 333° |
| 2026-05-05 12:24 | -22.81654 | -43.24693 | 21 ft | 0 kts | 303° |
| 2026-05-05 12:25 | -22.81633 | -43.24729 | 23 ft | 12 kts | 303° |
| 2026-05-05 12:26 | -22.81583 | -43.24808 | 22 ft | 12 kts | 306° |
| 2026-05-05 12:26 | -22.81526 | -43.24877 | 22 ft | 12 kts | 308° |
| 2026-05-05 12:26 | -22.81488 | -43.24956 | 22 ft | 12 kts | 271° |
| 2026-05-05 12:26 | -22.81495 | -43.25041 | 21 ft | 12 kts | 237° |
| 2026-05-05 12:27 | -22.81560 | -43.25098 | 21 ft | 13 kts | 216° |
| 2026-05-05 12:27 | -22.81636 | -43.25156 | 22 ft | 14 kts | 215° |
| 2026-05-05 12:27 | -22.81695 | -43.25230 | 23 ft | 13 kts | 265° |
| 2026-05-05 12:27 | -22.81710 | -43.25337 | 23 ft | 16 kts | 241° |
| 2026-05-05 12:28 | -22.81673 | -43.25445 | 23 ft | 16 kts | 306° |
| 2026-05-05 12:28 | -22.81610 | -43.25540 | 20 ft | 15 kts | 305° |
| 2026-05-05 12:28 | -22.81550 | -43.25631 | 20 ft | 15 kts | 305° |
| 2026-05-05 12:28 | -22.81493 | -43.25719 | 21 ft | 14 kts | 306° |
| 2026-05-05 12:29 | -22.81437 | -43.25803 | 21 ft | 13 kts | 306° |
| 2026-05-05 12:29 | -22.81384 | -43.25883 | 25 ft | 13 kts | 306° |
| 2026-05-05 12:29 | -22.81333 | -43.25959 | 29 ft | 13 kts | 307° |
| 2026-05-05 12:29 | -22.81276 | -43.26044 | 26 ft | 15 kts | 305° |
| 2026-05-05 12:30 | -22.81215 | -43.26138 | 27 ft | 15 kts | 306° |
| 2026-05-05 12:30 | -22.81155 | -43.26227 | 28 ft | 14 kts | 306° |
| 2026-05-05 12:30 | -22.81125 | -43.26323 | 29 ft | 14 kts | 255° |
| 2026-05-05 12:30 | -22.81201 | -43.26354 | 30 ft | 13 kts | 160° |
| 2026-05-05 12:31 | -22.81285 | -43.26300 | 29 ft | 21 kts | 129° |
| 2026-05-05 12:31 | -22.81539 | -43.25917 | 26 ft | 98 kts | 126° |
| 2026-05-05 12:31 | -22.82040 | -43.25168 | 29 ft | 146 kts | 126° |
| 2026-05-05 12:31 | -22.82725 | -43.24173 | 125 ft | 174 kts | 126° |
| 2026-05-05 12:32 | -22.83444 | -43.23153 | 1076 ft | 159 kts | 127° |
| 2026-05-05 12:32 | -22.83995 | -43.22237 | 2032 ft | 140 kts | 102° |
| 2026-05-05 12:32 | -22.84006 | -43.21462 | 1860 ft | 167 kts | 79° |
| 2026-05-05 12:33 | -22.81451 | -43.25221 | 20 ft | 0 kts | 214° |
| 2026-05-05 12:36 | -22.81440 | -43.25213 | 20 ft | 4 kts | 200° |
| 2026-05-05 12:37 | -22.81417 | -43.25212 | 21 ft | 4 kts | 143° |
| 2026-05-05 12:37 | -22.81405 | -43.25225 | 22 ft | 0 kts | 125° |
| 2026-05-05 12:38 | -22.81406 | -43.25224 | 22 ft | 3 kts | 125° |
| 2026-05-05 12:38 | -22.81452 | -43.25162 | 22 ft | 13 kts | 140° |
| 2026-05-05 12:38 | -22.81527 | -43.25191 | 20 ft | 13 kts | 216° |
| 2026-05-05 12:39 | -22.81598 | -43.25246 | 20 ft | 12 kts | 215° |
| 2026-05-05 12:39 | -22.81669 | -43.25300 | 23 ft | 13 kts | 215° |
| 2026-05-05 12:39 | -22.81703 | -43.25399 | 23 ft | 17 kts | 297° |
| 2026-05-05 12:39 | -22.81635 | -43.25499 | 20 ft | 16 kts | 305° |
| 2026-05-05 12:40 | -22.81572 | -43.25598 | 22 ft | 16 kts | 304° |
| 2026-05-05 12:40 | -22.81510 | -43.25693 | 21 ft | 15 kts | 307° |
| 2026-05-05 12:40 | -22.81450 | -43.25782 | 23 ft | 14 kts | 306° |
| 2026-05-05 12:40 | -22.81393 | -43.25868 | 22 ft | 14 kts | 305° |
| 2026-05-05 12:41 | -22.81338 | -43.25952 | 26 ft | 13 kts | 306° |
| 2026-05-05 12:41 | -22.81284 | -43.26033 | 27 ft | 14 kts | 306° |
| 2026-05-05 12:41 | -22.81218 | -43.26129 | 26 ft | 17 kts | 306° |
| 2026-05-05 12:41 | -22.81150 | -43.26232 | 28 ft | 16 kts | 303° |
| 2026-05-05 12:42 | -22.81137 | -43.26340 | 29 ft | 15 kts | 228° |
| 2026-05-05 12:42 | -22.81233 | -43.26328 | 30 ft | 14 kts | 161° |
| 2026-05-05 12:42 | -22.81326 | -43.26241 | 29 ft | 40 kts | 125° |
| 2026-05-05 12:42 | -22.81644 | -43.25761 | 24 ft | 111 kts | 125° |
| 2026-05-05 12:43 | -22.82200 | -43.24927 | 22 ft | 160 kts | 126° |
| 2026-05-05 12:43 | -22.82898 | -43.23835 | 155 ft | 188 kts | 124° |
| 2026-05-05 12:43 | -22.83631 | -43.22700 | 948 ft | 179 kts | 118° |
| 2026-05-05 12:43 | -22.83817 | -43.21352 | 1420 ft | 197 kts | 73° |
| 2026-05-05 12:44 | -22.83151 | -43.19959 | 1676 ft | 220 kts | 59° |
| 2026-05-05 12:44 | -22.82367 | -43.18446 | 1919 ft | 241 kts | 61° |
| 2026-05-05 12:44 | -22.81519 | -43.16796 | 2300 ft | 257 kts | 54° |
| 2026-05-05 12:44 | -22.80116 | -43.15631 | 3046 ft | 260 kts | 15° |
| 2026-05-05 12:45 | -22.78327 | -43.15572 | 3881 ft | 261 kts | 351° |
| 2026-05-05 12:45 | -22.76524 | -43.16003 | 4614 ft | 267 kts | 346° |
| 2026-05-05 12:45 | -22.74713 | -43.16518 | 5354 ft | 271 kts | 345° |
| 2026-05-05 12:45 | -22.73500 | -43.16872 | 5840 ft | 274 kts | 345° |
| 2026-05-05 12:46 | -22.71645 | -43.17415 | 6558 ft | 278 kts | 345° |
| 2026-05-05 12:46 | -22.69766 | -43.17960 | 7265 ft | 282 kts | 345° |
| 2026-05-05 12:46 | -22.67858 | -43.18506 | 7977 ft | 285 kts | 345° |
| 2026-05-05 12:46 | -22.65922 | -43.19056 | 8663 ft | 289 kts | 345° |
| 2026-05-05 12:47 | -22.63960 | -43.19608 | 9314 ft | 293 kts | 345° |
| 2026-05-05 12:47 | -22.61973 | -43.20165 | 9970 ft | 297 kts | 346° |
| 2026-05-05 12:47 | -22.59937 | -43.20732 | 10398 ft | 311 kts | 346° |
| 2026-05-05 12:47 | -22.57768 | -43.21336 | 10552 ft | 332 kts | 346° |
| 2026-05-05 12:48 | -22.55472 | -43.21974 | 10858 ft | 347 kts | 346° |
| 2026-05-05 12:48 | -22.53107 | -43.22629 | 11414 ft | 352 kts | 346° |
| 2026-05-05 12:48 | -22.50728 | -43.23287 | 12121 ft | 354 kts | 346° |
| 2026-05-05 12:48 | -22.48360 | -43.23941 | 12757 ft | 357 kts | 345° |
| 2026-05-05 12:49 | -22.45937 | -43.24611 | 13405 ft | 361 kts | 345° |
| 2026-05-05 12:49 | -22.43494 | -43.25286 | 14048 ft | 364 kts | 345° |
| 2026-05-05 12:49 | -22.41026 | -43.25967 | 14699 ft | 368 kts | 345° |
| 2026-05-05 12:49 | -22.38534 | -43.26654 | 15332 ft | 372 kts | 345° |
| 2026-05-05 12:50 | -22.36010 | -43.27350 | 15937 ft | 376 kts | 345° |
| 2026-05-05 12:50 | -22.33459 | -43.28054 | 16580 ft | 379 kts | 345° |
| 2026-05-05 12:50 | -22.30888 | -43.28764 | 17205 ft | 382 kts | 345° |
| 2026-05-05 12:50 | -22.28294 | -43.29479 | 17777 ft | 386 kts | 345° |
| 2026-05-05 12:51 | -22.25678 | -43.30200 | 18355 ft | 390 kts | 345° |
| 2026-05-05 12:51 | -22.23037 | -43.30927 | 18949 ft | 392 kts | 345° |
| 2026-05-05 12:51 | -22.20411 | -43.31650 | 19491 ft | 396 kts | 345° |
| 2026-05-05 12:51 | -22.17730 | -43.32387 | 20037 ft | 399 kts | 345° |
| 2026-05-05 12:52 | -22.15034 | -43.33128 | 20566 ft | 402 kts | 345° |
| 2026-05-05 12:52 | -22.12310 | -43.33877 | 21072 ft | 405 kts | 345° |
| 2026-05-05 12:52 | -22.09565 | -43.34632 | 21578 ft | 409 kts | 344° |
| 2026-05-05 12:52 | -22.06799 | -43.35391 | 22069 ft | 412 kts | 344° |
| 2026-05-05 12:53 | -22.04012 | -43.36157 | 22548 ft | 415 kts | 344° |
| 2026-05-05 12:53 | -22.01210 | -43.36925 | 22997 ft | 418 kts | 344° |
| 2026-05-05 12:53 | -21.98381 | -43.37701 | 23424 ft | 421 kts | 344° |
| 2026-05-05 12:53 | -21.95532 | -43.38483 | 23868 ft | 423 kts | 344° |
| 2026-05-05 12:54 | -21.89783 | -43.40059 | 24696 ft | 428 kts | 344° |
| 2026-05-05 12:54 | -21.86881 | -43.40854 | 25096 ft | 431 kts | 344° |
| 2026-05-05 12:54 | -21.83966 | -43.41652 | 25493 ft | 434 kts | 344° |
| 2026-05-05 12:55 | -21.81091 | -43.42645 | 25874 ft | 435 kts | 335° |
| 2026-05-05 12:55 | -21.78411 | -43.44135 | 26263 ft | 435 kts | 328° |
| 2026-05-05 12:55 | -21.75802 | -43.45799 | 26637 ft | 437 kts | 327° |
| 2026-05-05 12:55 | -21.73215 | -43.47465 | 26986 ft | 439 kts | 327° |
| 2026-05-05 12:56 | -21.70579 | -43.49149 | 27331 ft | 442 kts | 328° |
| 2026-05-05 12:56 | -21.67923 | -43.50824 | 27675 ft | 444 kts | 328° |
| 2026-05-05 12:56 | -21.65246 | -43.52497 | 28015 ft | 446 kts | 328° |
| 2026-05-05 12:56 | -21.62555 | -43.54171 | 28333 ft | 448 kts | 328° |
| 2026-05-05 12:57 | -21.59840 | -43.55858 | 28647 ft | 450 kts | 328° |
| 2026-05-05 12:57 | -21.57122 | -43.57547 | 28949 ft | 453 kts | 328° |
| 2026-05-05 12:57 | -21.54390 | -43.59244 | 29256 ft | 454 kts | 328° |
| 2026-05-05 12:57 | -21.51643 | -43.60948 | 29550 ft | 456 kts | 328° |
| 2026-05-05 12:58 | -21.48890 | -43.62655 | 29855 ft | 458 kts | 328° |
| 2026-05-05 12:58 | -21.46118 | -43.64375 | 30146 ft | 460 kts | 328° |
| 2026-05-05 12:58 | -21.43340 | -43.66097 | 30430 ft | 462 kts | 328° |
| 2026-05-05 12:58 | -21.40558 | -43.67822 | 30710 ft | 463 kts | 328° |
| 2026-05-05 12:59 | -21.37758 | -43.69555 | 30986 ft | 465 kts | 328° |
| 2026-05-05 12:59 | -21.34991 | -43.71269 | 31271 ft | 465 kts | 328° |
| 2026-05-05 12:59 | -21.32184 | -43.73006 | 31612 ft | 465 kts | 328° |
| 2026-05-05 13:00 | -21.26606 | -43.76457 | 32402 ft | 460 kts | 328° |
| 2026-05-05 13:00 | -21.23855 | -43.78202 | 32740 ft | 459 kts | 327° |
| 2026-05-05 13:01 | -21.15703 | -43.83562 | 33740 ft | 456 kts | 326° |
| 2026-05-05 13:01 | -21.13007 | -43.85335 | 34051 ft | 455 kts | 326° |
| 2026-05-05 13:01 | -21.10315 | -43.87101 | 34343 ft | 454 kts | 326° |
| 2026-05-05 13:01 | -21.07611 | -43.88869 | 34606 ft | 454 kts | 326° |
| 2026-05-05 13:02 | -21.04918 | -43.90628 | 34849 ft | 454 kts | 326° |
| 2026-05-05 13:02 | -21.02226 | -43.92384 | 35105 ft | 453 kts | 326° |
| 2026-05-05 13:02 | -20.99527 | -43.94142 | 35364 ft | 453 kts | 326° |
| 2026-05-05 13:02 | -20.96839 | -43.95893 | 35612 ft | 452 kts | 326° |
| 2026-05-05 13:03 | -20.94150 | -43.97645 | 35850 ft | 452 kts | 326° |
| 2026-05-05 13:03 | -20.91491 | -43.99375 | 36089 ft | 452 kts | 326° |
| 2026-05-05 13:03 | -20.88815 | -44.01117 | 36326 ft | 451 kts | 326° |
| 2026-05-05 13:03 | -20.86122 | -44.02869 | 36490 ft | 452 kts | 326° |
| 2026-05-05 13:04 | -20.83427 | -44.04622 | 36635 ft | 453 kts | 326° |
| 2026-05-05 13:04 | -20.80738 | -44.06369 | 36979 ft | 449 kts | 326° |
| 2026-05-05 13:04 | -20.78090 | -44.08088 | 37450 ft | 442 kts | 326° |
| 2026-05-05 13:04 | -20.75467 | -44.09788 | 37732 ft | 440 kts | 326° |
| 2026-05-05 13:05 | -20.70223 | -44.13171 | 37850 ft | 445 kts | 326° |
| 2026-05-05 13:05 | -20.67544 | -44.14919 | 38041 ft | 445 kts | 325° |
| 2026-05-05 13:05 | -20.64915 | -44.16636 | 38263 ft | 444 kts | 325° |
| 2026-05-05 13:06 | -20.59649 | -44.20037 | 38355 ft | 447 kts | 326° |
| 2026-05-05 13:06 | -20.54317 | -44.23439 | 38353 ft | 445 kts | 326° |
| 2026-05-05 13:07 | -20.49019 | -44.26824 | 38343 ft | 442 kts | 326° |
| 2026-05-05 13:07 | -20.43761 | -44.30186 | 38350 ft | 440 kts | 326° |
| 2026-05-05 13:08 | -20.38537 | -44.33555 | 38341 ft | 438 kts | 325° |
| 2026-05-05 13:08 | -20.33334 | -44.36923 | 38344 ft | 438 kts | 325° |
| 2026-05-05 13:09 | -20.28119 | -44.40296 | 38344 ft | 439 kts | 325° |
| 2026-05-05 13:09 | -20.22894 | -44.43669 | 38339 ft | 440 kts | 325° |
| 2026-05-05 13:10 | -20.17684 | -44.47032 | 38332 ft | 441 kts | 325° |
| 2026-05-05 13:10 | -20.12421 | -44.50420 | 38331 ft | 443 kts | 326° |
| 2026-05-05 13:11 | -20.07134 | -44.53800 | 38339 ft | 444 kts | 326° |
| 2026-05-05 13:11 | -20.01824 | -44.57189 | 38333 ft | 446 kts | 326° |
| 2026-05-05 13:12 | -19.96496 | -44.60590 | 38338 ft | 447 kts | 326° |
| 2026-05-05 13:12 | -19.91153 | -44.63997 | 38330 ft | 448 kts | 326° |
| 2026-05-05 13:13 | -19.85811 | -44.67401 | 38331 ft | 447 kts | 326° |
| 2026-05-05 13:13 | -19.80481 | -44.70797 | 38327 ft | 447 kts | 326° |
| 2026-05-05 13:14 | -19.75138 | -44.74198 | 38324 ft | 446 kts | 326° |
| 2026-05-05 13:14 | -19.69814 | -44.77584 | 38320 ft | 446 kts | 326° |
| 2026-05-05 13:15 | -19.64529 | -44.80943 | 38321 ft | 445 kts | 326° |
| 2026-05-05 13:15 | -19.59226 | -44.84312 | 38318 ft | 444 kts | 326° |
| 2026-05-05 13:16 | -19.54253 | -44.88096 | 38321 ft | 434 kts | 308° |
| 2026-05-05 13:16 | -19.52456 | -44.90637 | 38321 ft | 429 kts | 297° |
| 2026-05-05 13:16 | -19.51215 | -44.93482 | 38325 ft | 424 kts | 286° |
| 2026-05-05 13:17 | -19.49306 | -44.99404 | 38329 ft | 424 kts | 286° |
| 2026-05-05 13:17 | -19.47387 | -45.05330 | 38320 ft | 426 kts | 286° |
| 2026-05-05 13:18 | -19.45441 | -45.11220 | 38326 ft | 427 kts | 287° |
| 2026-05-05 13:18 | -19.43458 | -45.17166 | 38320 ft | 429 kts | 287° |
| 2026-05-05 13:19 | -19.41462 | -45.23139 | 38321 ft | 430 kts | 287° |
| 2026-05-05 13:19 | -19.39460 | -45.29127 | 38325 ft | 431 kts | 287° |
| 2026-05-05 13:20 | -19.37452 | -45.35120 | 38324 ft | 432 kts | 287° |
| 2026-05-05 13:20 | -19.35444 | -45.41115 | 38330 ft | 432 kts | 287° |
| 2026-05-05 13:21 | -19.33443 | -45.47080 | 38332 ft | 432 kts | 287° |
| 2026-05-05 13:21 | -19.31423 | -45.53086 | 38330 ft | 432 kts | 287° |
| 2026-05-05 13:22 | -19.29405 | -45.59072 | 38329 ft | 432 kts | 287° |
| 2026-05-05 13:22 | -19.27384 | -45.65060 | 38334 ft | 431 kts | 287° |
| 2026-05-05 13:23 | -19.25370 | -45.71026 | 38330 ft | 430 kts | 287° |
| 2026-05-05 13:23 | -19.23369 | -45.76944 | 38334 ft | 429 kts | 287° |
| 2026-05-05 13:24 | -19.21356 | -45.82894 | 38332 ft | 429 kts | 287° |
| 2026-05-05 13:24 | -19.19339 | -45.88847 | 38332 ft | 429 kts | 287° |
| 2026-05-05 13:25 | -19.17324 | -45.94788 | 38333 ft | 429 kts | 287° |
| 2026-05-05 13:25 | -19.15305 | -46.00733 | 38331 ft | 429 kts | 287° |
| 2026-05-05 13:26 | -19.13299 | -46.06630 | 38333 ft | 429 kts | 287° |
| 2026-05-05 13:26 | -19.11283 | -46.12557 | 38339 ft | 429 kts | 286° |
| 2026-05-05 13:27 | -19.09262 | -46.18499 | 38348 ft | 428 kts | 286° |
| 2026-05-05 13:27 | -19.07242 | -46.24430 | 38334 ft | 429 kts | 286° |
| 2026-05-05 13:28 | -19.05217 | -46.30367 | 38339 ft | 429 kts | 287° |
| 2026-05-05 13:28 | -19.03186 | -46.36314 | 38348 ft | 431 kts | 287° |
| 2026-05-05 13:29 | -19.01150 | -46.42270 | 38335 ft | 431 kts | 286° |
| 2026-05-05 13:29 | -18.99107 | -46.48233 | 38341 ft | 432 kts | 286° |
| 2026-05-05 13:30 | -18.97073 | -46.54170 | 38342 ft | 432 kts | 286° |
| 2026-05-05 13:30 | -18.95027 | -46.60133 | 38339 ft | 432 kts | 286° |
| 2026-05-05 13:31 | -18.92996 | -46.66103 | 38343 ft | 431 kts | 285° |
| 2026-05-05 13:31 | -18.91085 | -46.72108 | 38341 ft | 431 kts | 285° |
| 2026-05-05 13:32 | -18.89519 | -46.77095 | 38337 ft | 430 kts | 285° |
| 2026-05-05 13:32 | -18.87624 | -46.83084 | 38348 ft | 430 kts | 285° |
| 2026-05-05 13:33 | -18.85718 | -46.89068 | 38339 ft | 430 kts | 285° |
| 2026-05-05 13:33 | -18.83808 | -46.95048 | 38346 ft | 429 kts | 285° |
| 2026-05-05 13:34 | -18.81906 | -47.00996 | 38340 ft | 430 kts | 285° |
| 2026-05-05 13:34 | -18.79994 | -47.06972 | 38340 ft | 429 kts | 285° |
| 2026-05-05 13:35 | -18.78080 | -47.12947 | 38334 ft | 430 kts | 285° |
| 2026-05-05 13:35 | -18.76162 | -47.18922 | 38331 ft | 430 kts | 285° |
| 2026-05-05 13:36 | -18.74242 | -47.24899 | 38329 ft | 430 kts | 285° |
| 2026-05-05 13:36 | -18.72321 | -47.30870 | 38330 ft | 430 kts | 285° |
| 2026-05-05 13:37 | -18.70408 | -47.36817 | 38333 ft | 430 kts | 285° |
| 2026-05-05 13:37 | -18.68484 | -47.42791 | 38330 ft | 431 kts | 284° |
| 2026-05-05 13:38 | -18.66553 | -47.48782 | 38322 ft | 431 kts | 285° |
| 2026-05-05 13:38 | -18.64621 | -47.54761 | 38322 ft | 431 kts | 284° |
| 2026-05-05 13:39 | -18.62689 | -47.60741 | 38327 ft | 431 kts | 284° |
| 2026-05-05 13:39 | -18.60752 | -47.66729 | 38323 ft | 431 kts | 284° |
| 2026-05-05 13:40 | -18.58805 | -47.72707 | 38325 ft | 431 kts | 285° |
| 2026-05-05 13:40 | -18.56848 | -47.78689 | 38317 ft | 431 kts | 285° |
| 2026-05-05 13:41 | -18.54894 | -47.84661 | 38320 ft | 431 kts | 285° |
| 2026-05-05 13:41 | -18.52939 | -47.90636 | 38321 ft | 431 kts | 284° |
| 2026-05-05 13:42 | -18.50983 | -47.96604 | 38324 ft | 431 kts | 284° |
| 2026-05-05 13:42 | -18.49039 | -48.02534 | 38318 ft | 431 kts | 284° |
| 2026-05-05 13:43 | -18.47077 | -48.08508 | 38314 ft | 431 kts | 284° |
| 2026-05-05 13:43 | -18.45111 | -48.14483 | 38310 ft | 432 kts | 285° |
| 2026-05-05 13:44 | -18.43132 | -48.20466 | 37889 ft | 439 kts | 285° |
| 2026-05-05 13:44 | -18.42011 | -48.23501 | 37257 ft | 445 kts | 295° |
| 2026-05-05 13:44 | -18.40150 | -48.26117 | 36775 ft | 452 kts | 312° |
| 2026-05-05 13:45 | -18.37660 | -48.28131 | 36475 ft | 452 kts | 328° |
| 2026-05-05 13:45 | -18.34833 | -48.29439 | 36271 ft | 447 kts | 335° |
| 2026-05-05 13:45 | -18.31898 | -48.30556 | 36022 ft | 452 kts | 337° |
| 2026-05-05 13:45 | -18.28890 | -48.31647 | 35795 ft | 463 kts | 338° |
| 2026-05-05 13:46 | -18.25805 | -48.32764 | 35563 ft | 474 kts | 338° |
| 2026-05-05 13:46 | -18.22668 | -48.33913 | 35326 ft | 479 kts | 337° |
| 2026-05-05 13:46 | -18.19529 | -48.35080 | 35067 ft | 478 kts | 337° |
| 2026-05-05 13:46 | -18.16395 | -48.36257 | 34815 ft | 477 kts | 337° |
| 2026-05-05 13:47 | -18.13276 | -48.37438 | 34567 ft | 476 kts | 337° |
| 2026-05-05 13:47 | -18.10166 | -48.38621 | 34315 ft | 474 kts | 337° |
| 2026-05-05 13:47 | -18.07070 | -48.39799 | 34060 ft | 473 kts | 337° |
| 2026-05-05 13:47 | -18.03975 | -48.40977 | 33810 ft | 471 kts | 337° |
| 2026-05-05 13:48 | -18.00893 | -48.42150 | 33561 ft | 470 kts | 337° |
| 2026-05-05 13:48 | -17.97818 | -48.43317 | 33311 ft | 469 kts | 337° |
| 2026-05-05 13:48 | -17.94746 | -48.44482 | 33062 ft | 469 kts | 337° |
| 2026-05-05 13:48 | -17.91683 | -48.45643 | 32819 ft | 468 kts | 337° |
| 2026-05-05 13:49 | -17.88615 | -48.46806 | 32570 ft | 469 kts | 338° |
| 2026-05-05 13:49 | -17.85546 | -48.47969 | 32322 ft | 469 kts | 338° |
| 2026-05-05 13:49 | -17.82468 | -48.49135 | 32082 ft | 470 kts | 338° |
| 2026-05-05 13:49 | -17.79383 | -48.50303 | 31832 ft | 471 kts | 338° |
| 2026-05-05 13:50 | -17.76347 | -48.51452 | 31273 ft | 471 kts | 338° |
| 2026-05-05 13:50 | -17.73264 | -48.52618 | 30548 ft | 471 kts | 338° |
| 2026-05-05 13:50 | -17.70210 | -48.53874 | 29788 ft | 470 kts | 332° |
| 2026-05-05 13:50 | -17.67377 | -48.55577 | 29066 ft | 468 kts | 326° |
| 2026-05-05 13:51 | -17.64648 | -48.57418 | 28502 ft | 463 kts | 325° |
| 2026-05-05 13:51 | -17.61969 | -48.59248 | 27945 ft | 458 kts | 326° |
| 2026-05-05 13:51 | -17.59296 | -48.61041 | 27371 ft | 454 kts | 326° |
| 2026-05-05 13:51 | -17.56628 | -48.62792 | 26814 ft | 450 kts | 327° |
| 2026-05-05 13:52 | -17.53974 | -48.64507 | 26257 ft | 446 kts | 327° |
| 2026-05-05 13:52 | -17.51328 | -48.66206 | 25699 ft | 442 kts | 327° |
| 2026-05-05 13:52 | -17.48716 | -48.67883 | 25158 ft | 438 kts | 327° |
| 2026-05-05 13:52 | -17.46127 | -48.69546 | 24605 ft | 435 kts | 327° |
| 2026-05-05 13:53 | -17.43566 | -48.71192 | 24119 ft | 429 kts | 327° |
| 2026-05-05 13:53 | -17.41026 | -48.72823 | 23572 ft | 426 kts | 327° |
| 2026-05-05 13:53 | -17.38509 | -48.74439 | 23041 ft | 423 kts | 327° |
| 2026-05-05 13:53 | -17.36009 | -48.76043 | 22507 ft | 419 kts | 327° |
| 2026-05-05 13:54 | -17.33531 | -48.77635 | 21984 ft | 416 kts | 327° |
| 2026-05-05 13:54 | -17.31101 | -48.79195 | 21454 ft | 413 kts | 327° |
| 2026-05-05 13:54 | -17.28659 | -48.80763 | 20931 ft | 410 kts | 328° |
| 2026-05-05 13:54 | -17.26237 | -48.82317 | 20404 ft | 407 kts | 328° |
| 2026-05-05 13:55 | -17.23830 | -48.83860 | 19888 ft | 404 kts | 328° |
| 2026-05-05 13:55 | -17.21438 | -48.85394 | 19361 ft | 401 kts | 328° |
| 2026-05-05 13:55 | -17.19064 | -48.86915 | 18857 ft | 398 kts | 328° |
| 2026-05-05 13:55 | -17.16707 | -48.88425 | 18327 ft | 395 kts | 328° |
| 2026-05-05 13:56 | -17.14372 | -48.89920 | 17826 ft | 392 kts | 328° |
| 2026-05-05 13:56 | -17.12049 | -48.91409 | 17329 ft | 390 kts | 328° |
| 2026-05-05 13:56 | -17.09748 | -48.92883 | 16840 ft | 386 kts | 328° |
| 2026-05-05 13:56 | -17.07463 | -48.94347 | 16325 ft | 384 kts | 328° |
| 2026-05-05 13:57 | -17.05192 | -48.95800 | 15838 ft | 381 kts | 328° |
| 2026-05-05 13:57 | -17.02932 | -48.97246 | 15346 ft | 379 kts | 328° |
| 2026-05-05 13:57 | -17.00692 | -48.98677 | 14863 ft | 376 kts | 328° |
| 2026-05-05 13:57 | -16.98462 | -49.00102 | 14429 ft | 373 kts | 328° |
| 2026-05-05 13:58 | -16.96262 | -49.01507 | 14190 ft | 368 kts | 328° |
| 2026-05-05 13:58 | -16.94066 | -49.02908 | 13881 ft | 372 kts | 329° |
| 2026-05-05 13:58 | -16.91859 | -49.04316 | 13402 ft | 371 kts | 329° |
| 2026-05-05 13:58 | -16.89665 | -49.05716 | 12903 ft | 368 kts | 329° |
| 2026-05-05 13:59 | -16.85326 | -49.08485 | 11853 ft | 366 kts | 329° |
| 2026-05-05 13:59 | -16.83152 | -49.09870 | 11328 ft | 365 kts | 329° |
| 2026-05-05 14:00 | -16.79618 | -49.13377 | 10956 ft | 345 kts | 301° |
| 2026-05-05 14:00 | -16.78820 | -49.14795 | 10847 ft | 339 kts | 300° |
| 2026-05-05 14:00 | -16.77285 | -49.17611 | 10629 ft | 327 kts | 300° |
| 2026-05-05 14:00 | -16.76171 | -49.19652 | 10475 ft | 319 kts | 300° |
| 2026-05-05 14:01 | -16.75080 | -49.21629 | 10340 ft | 311 kts | 300° |
| 2026-05-05 14:01 | -16.74006 | -49.23558 | 10229 ft | 302 kts | 300° |
| 2026-05-05 14:01 | -16.72964 | -49.25417 | 10046 ft | 296 kts | 301° |
| 2026-05-05 14:01 | -16.71911 | -49.27290 | 9636 ft | 299 kts | 301° |
| 2026-05-05 14:02 | -16.70859 | -49.29166 | 9348 ft | 298 kts | 301° |
| 2026-05-05 14:02 | -16.69821 | -49.31013 | 8923 ft | 300 kts | 301° |
| 2026-05-05 14:02 | -16.68772 | -49.32876 | 8717 ft | 291 kts | 301° |
| 2026-05-05 14:02 | -16.67770 | -49.34659 | 8469 ft | 281 kts | 301° |
| 2026-05-05 14:03 | -16.66795 | -49.36394 | 8175 ft | 274 kts | 301° |
| 2026-05-05 14:03 | -16.65847 | -49.38083 | 7928 ft | 265 kts | 301° |
| 2026-05-05 14:03 | -16.64924 | -49.39715 | 7714 ft | 256 kts | 301° |
| 2026-05-05 14:03 | -16.63920 | -49.41212 | 7369 ft | 252 kts | 319° |
| 2026-05-05 14:04 | -16.62379 | -49.41998 | 7024 ft | 244 kts | 353° |
| 2026-05-05 14:04 | -16.60723 | -49.41917 | 6666 ft | 235 kts | 17° |
| 2026-05-05 14:04 | -16.59279 | -49.41247 | 6398 ft | 222 kts | 32° |
| 2026-05-05 14:04 | -16.57978 | -49.40444 | 6102 ft | 213 kts | 32° |
| 2026-05-05 14:05 | -16.56733 | -49.39685 | 5892 ft | 203 kts | 32° |
| 2026-05-05 14:05 | -16.55611 | -49.38887 | 5648 ft | 193 kts | 49° |
| 2026-05-05 14:05 | -16.55088 | -49.37674 | 5459 ft | 184 kts | 84° |
| 2026-05-05 14:05 | -16.55241 | -49.36351 | 5220 ft | 187 kts | 112° |
| 2026-05-05 14:06 | -16.55833 | -49.35161 | 5017 ft | 186 kts | 119° |
| 2026-05-05 14:06 | -16.56489 | -49.34007 | 4814 ft | 183 kts | 120° |
| 2026-05-05 14:06 | -16.57120 | -49.32905 | 4618 ft | 169 kts | 119° |
| 2026-05-05 14:06 | -16.57702 | -49.31872 | 4365 ft | 163 kts | 118° |
| 2026-05-05 14:07 | -16.58277 | -49.30859 | 4186 ft | 161 kts | 120° |
| 2026-05-05 14:07 | -16.58857 | -49.29841 | 3971 ft | 165 kts | 120° |
| 2026-05-05 14:07 | -16.59430 | -49.28821 | 3782 ft | 162 kts | 120° |
| 2026-05-05 14:07 | -16.60001 | -49.27804 | 3564 ft | 164 kts | 119° |
| 2026-05-05 14:08 | -16.60575 | -49.26780 | 3351 ft | 163 kts | 119° |
| 2026-05-05 14:08 | -16.61144 | -49.25763 | 3129 ft | 162 kts | 119° |
| 2026-05-05 14:08 | -16.61707 | -49.24759 | 2921 ft | 160 kts | 119° |
| 2026-05-05 14:08 | -16.62258 | -49.23778 | 2717 ft | 158 kts | 120° |
| 2026-05-05 14:09 | -16.62808 | -49.22793 | 2467 ft | 155 kts | 120° |
| 2026-05-05 14:09 | -16.63288 | -49.21934 | 2446 ft | 133 kts | 120° |
| 2026-05-05 14:09 | -16.63700 | -49.21215 | 2462 ft | 79 kts | 121° |
| 2026-05-05 14:09 | -16.63691 | -49.21061 | 2462 ft | 16 kts | 24° |
| 2026-05-05 14:10 | -16.63585 | -49.21006 | 2461 ft | 17 kts | 28° |
| 2026-05-05 14:10 | -16.63475 | -49.21018 | 2461 ft | 16 kts | 346° |
| 2026-05-05 14:10 | -16.63375 | -49.21060 | 2465 ft | 15 kts | 319° |
| 2026-05-05 14:10 | -16.63318 | -49.21152 | 2464 ft | 15 kts | 300° |
| 2026-05-05 14:11 | -16.63267 | -49.21243 | 2461 ft | 14 kts | 300° |
| 2026-05-05 14:11 | -16.63219 | -49.21331 | 2466 ft | 14 kts | 300° |
| 2026-05-05 14:11 | -16.63171 | -49.21414 | 2464 ft | 13 kts | 299° |
| 2026-05-05 14:11 | -16.63143 | -49.21446 | 2465 ft | 3 kts | 359° |
| 2026-05-05 14:12 | -16.63120 | -49.21436 | 2461 ft | 4 kts | 29° |
| 2026-05-05 14:12 | -16.63107 | -49.21428 | 2464 ft | 2 kts | 31° |
| 2026-05-05 14:12 | -16.63106 | -49.21427 | 2461 ft | 0 kts | 31° |